createdAt,value
2023-11-09T00:00:30.912Z,9.60
2023-11-09T00:01:02.517Z,9.59
2023-11-09T00:01:34.212Z,9.59
2023-11-09T00:02:05.905Z,9.60
2023-11-09T00:02:37.522Z,9.61
2023-11-09T00:03:09.308Z,9.61
2023-11-09T00:03:40.885Z,9.62
2023-11-09T00:04:13.314Z,9.60
2023-11-09T00:05:05.108Z,9.62
2023-11-09T00:05:36.900Z,9.61
2023-11-09T00:06:08.589Z,9.61
2023-11-09T00:06:40.109Z,9.60
2023-11-09T00:07:30.950Z,9.60
2023-11-09T00:08:02.462Z,9.60
2023-11-09T00:08:34.313Z,9.60
2023-11-09T00:09:55.030Z,9.60
2023-11-09T00:10:27.351Z,9.60
2023-11-09T00:10:58.866Z,9.59
2023-11-09T00:11:30.526Z,9.59
2023-11-09T00:12:02.222Z,9.59
2023-11-09T00:12:34.092Z,9.58
2023-11-09T00:13:05.681Z,9.60
2023-11-09T00:13:37.213Z,9.59
2023-11-09T00:14:16.389Z,9.61
2023-11-09T00:14:49.475Z,9.60
2023-11-09T00:15:21.669Z,9.60
2023-11-09T00:15:53.515Z,9.60
2023-11-09T00:16:25.167Z,9.60
2023-11-09T00:16:56.750Z,9.60
2023-11-09T00:17:28.241Z,9.60
2023-11-09T00:18:00.477Z,9.59
2023-11-09T00:18:32.277Z,9.60
2023-11-09T00:19:04.907Z,9.59
2023-11-09T00:19:36.461Z,9.59
2023-11-09T00:20:09.191Z,9.59
2023-11-09T00:20:40.700Z,9.59
2023-11-09T00:21:12.261Z,9.60
2023-11-09T00:21:44.031Z,9.60
2023-11-09T00:22:15.711Z,9.59
2023-11-09T00:22:48.169Z,9.59
2023-11-09T00:23:21.025Z,9.60
2023-11-09T00:23:52.633Z,9.59
2023-11-09T00:24:24.149Z,9.60
2023-11-09T00:24:55.666Z,9.60
2023-11-09T00:25:28.057Z,9.60
2023-11-09T00:26:02.075Z,9.60
2023-11-09T00:26:33.565Z,9.60
2023-11-09T00:27:05.137Z,9.59
2023-11-09T00:27:36.642Z,9.61
2023-11-09T00:28:08.423Z,9.61
2023-11-09T00:28:39.879Z,9.61
2023-11-09T00:29:11.509Z,9.60
2023-11-09T00:29:42.999Z,9.60
2023-11-09T00:30:14.976Z,9.60
2023-11-09T00:30:46.912Z,9.60
2023-11-09T00:31:20.743Z,9.59
2023-11-09T00:31:52.358Z,9.60
2023-11-09T00:32:23.816Z,9.60
2023-11-09T00:32:55.300Z,9.61
2023-11-09T00:33:26.770Z,9.60
2023-11-09T00:33:58.362Z,9.61
2023-11-09T00:34:30.048Z,9.59
2023-11-09T00:35:01.965Z,9.61
2023-11-09T00:35:34.162Z,9.61
2023-11-09T00:36:06.134Z,9.61
2023-11-09T00:36:37.940Z,9.62
2023-11-09T00:37:09.914Z,9.62
2023-11-09T00:37:42.122Z,9.62
2023-11-09T00:38:16.029Z,9.62
2023-11-09T00:38:50.710Z,9.62
2023-11-09T00:39:23.464Z,9.62
2023-11-09T00:39:56.171Z,9.62
2023-11-09T00:40:28.045Z,9.62
2023-11-09T00:40:59.686Z,9.62
2023-11-09T00:41:31.274Z,9.61
2023-11-09T00:42:02.880Z,9.61
2023-11-09T00:43:23.484Z,9.62
2023-11-09T00:43:56.964Z,9.62
2023-11-09T00:44:28.629Z,9.62
2023-11-09T00:45:00.162Z,9.62
2023-11-09T00:45:35.585Z,9.61
2023-11-09T00:46:07.542Z,9.62
2023-11-09T00:46:39.108Z,9.63
2023-11-09T00:47:10.628Z,9.62
2023-11-09T00:48:00.775Z,9.64
2023-11-09T00:48:32.412Z,9.64
2023-11-09T00:49:04.338Z,9.64
2023-11-09T00:49:35.833Z,9.63
2023-11-09T00:50:07.645Z,9.64
2023-11-09T00:50:39.330Z,9.64
2023-11-09T00:51:10.898Z,9.64
2023-11-09T00:51:42.469Z,9.64
2023-11-09T00:52:13.963Z,9.63
2023-11-09T00:52:45.913Z,9.63
2023-11-09T00:53:17.562Z,9.64
2023-11-09T00:53:49.751Z,9.64
2023-11-09T00:54:21.285Z,9.65
2023-11-09T00:54:53.012Z,9.64
2023-11-09T00:55:24.506Z,9.64
2023-11-09T00:55:55.991Z,9.65
2023-11-09T00:56:27.499Z,9.65
2023-11-09T00:56:58.995Z,9.66
2023-11-09T00:57:42.451Z,9.65
2023-11-09T00:58:14.173Z,9.64
2023-11-09T00:58:45.662Z,9.64
2023-11-09T00:59:17.217Z,9.64
2023-11-09T00:59:49.974Z,9.64
2023-11-09T01:00:21.835Z,9.65
2023-11-09T01:00:53.574Z,9.65
2023-11-09T01:01:25.124Z,9.64
2023-11-09T01:01:56.607Z,9.63
2023-11-09T01:02:28.703Z,9.64
2023-11-09T01:03:01.065Z,9.64
2023-11-09T01:03:33.151Z,9.64
2023-11-09T01:04:06.277Z,9.64
2023-11-09T01:04:38.009Z,9.65
2023-11-09T01:05:10.894Z,9.65
2023-11-09T01:05:42.583Z,9.64
2023-11-09T01:06:14.179Z,9.64
2023-11-09T01:06:45.991Z,9.65
2023-11-09T01:07:18.067Z,9.64
2023-11-09T01:07:49.565Z,9.63
2023-11-09T01:08:23.244Z,9.65
2023-11-09T01:08:54.797Z,9.65
2023-11-09T01:09:26.303Z,9.66
2023-11-09T01:09:57.804Z,9.65
2023-11-09T01:10:29.313Z,9.65
2023-11-09T01:11:07.148Z,9.66
2023-11-09T01:11:40.021Z,9.65
2023-11-09T01:12:11.575Z,9.64
2023-11-09T01:12:43.116Z,9.64
2023-11-09T01:13:14.718Z,9.65
2023-11-09T01:13:46.257Z,9.65
2023-11-09T01:14:21.199Z,9.64
2023-11-09T01:14:55.873Z,9.64
2023-11-09T01:15:27.327Z,9.64
2023-11-09T01:15:58.833Z,9.65
2023-11-09T01:16:30.582Z,9.64
2023-11-09T01:17:02.203Z,9.65
2023-11-09T01:17:37.875Z,9.66
2023-11-09T01:18:11.394Z,9.65
2023-11-09T01:18:43.072Z,9.66
2023-11-09T01:19:14.767Z,9.65
2023-11-09T01:20:06.214Z,9.66
2023-11-09T01:20:37.968Z,9.66
2023-11-09T01:21:28.784Z,9.66
2023-11-09T01:22:01.338Z,9.66
2023-11-09T01:22:33.077Z,9.66
2023-11-09T01:23:05.394Z,9.65
2023-11-09T01:23:37.449Z,9.65
2023-11-09T01:24:09.080Z,9.65
2023-11-09T01:24:41.071Z,9.65
2023-11-09T01:25:12.672Z,9.66
2023-11-09T01:25:44.818Z,9.66
2023-11-09T01:26:16.364Z,9.66
2023-11-09T01:26:48.402Z,9.66
2023-11-09T01:27:19.879Z,9.67
2023-11-09T01:27:51.525Z,9.67
2023-11-09T01:28:23.181Z,9.67
2023-11-09T01:28:54.740Z,9.68
2023-11-09T01:29:26.432Z,9.66
2023-11-09T01:29:58.031Z,9.67
2023-11-09T01:30:30.701Z,9.67
2023-11-09T01:31:02.996Z,9.67
2023-11-09T01:31:35.658Z,9.67
2023-11-09T01:32:07.150Z,9.68
2023-11-09T01:32:38.636Z,9.66
2023-11-09T01:33:10.353Z,9.68
2023-11-09T01:33:42.121Z,9.68
2023-11-09T01:34:15.512Z,9.68
2023-11-09T01:34:47.551Z,9.67
2023-11-09T01:35:19.213Z,9.68
2023-11-09T01:35:50.766Z,9.68
2023-11-09T01:36:22.236Z,9.68
2023-11-09T01:36:56.580Z,9.67
2023-11-09T01:37:28.077Z,9.67
2023-11-09T01:37:59.550Z,9.67
2023-11-09T01:38:31.805Z,9.67
2023-11-09T01:39:03.512Z,9.67
2023-11-09T01:39:34.979Z,9.68
2023-11-09T01:40:09.764Z,9.68
2023-11-09T01:40:41.313Z,9.69
2023-11-09T01:41:12.854Z,9.69
2023-11-09T01:41:46.837Z,9.69
2023-11-09T01:42:18.804Z,9.68
2023-11-09T01:42:50.465Z,9.69
2023-11-09T01:43:22.862Z,9.68
2023-11-09T01:44:51.007Z,9.69
2023-11-09T01:45:22.843Z,9.69
2023-11-09T01:45:54.445Z,9.69
2023-11-09T01:46:27.405Z,9.68
2023-11-09T01:46:59.919Z,9.69
2023-11-09T01:47:31.560Z,9.68
2023-11-09T01:48:03.700Z,9.69
2023-11-09T01:48:36.176Z,9.69
2023-11-09T01:49:09.841Z,9.68
2023-11-09T01:49:41.885Z,9.69
2023-11-09T01:50:15.532Z,9.69
2023-11-09T01:50:48.719Z,9.69
2023-11-09T01:51:20.937Z,9.69
2023-11-09T01:51:55.554Z,9.68
2023-11-09T01:52:27.942Z,9.69
2023-11-09T01:53:00.774Z,9.68
2023-11-09T01:53:32.569Z,9.70
2023-11-09T01:54:05.694Z,9.70
2023-11-09T01:54:38.486Z,9.70
2023-11-09T01:55:10.348Z,9.70
2023-11-09T01:55:42.225Z,9.70
2023-11-09T01:56:15.682Z,9.70
2023-11-09T01:56:47.542Z,9.69
2023-11-09T01:57:20.970Z,9.70
2023-11-09T01:57:52.616Z,9.71
2023-11-09T01:58:24.837Z,9.72
2023-11-09T01:58:57.506Z,9.72
2023-11-09T01:59:32.186Z,9.71
2023-11-09T02:00:04.481Z,9.70
2023-11-09T02:00:37.498Z,9.70
2023-11-09T02:01:12.613Z,9.69
2023-11-09T02:01:45.808Z,9.71
2023-11-09T02:02:18.363Z,9.70
2023-11-09T02:02:53.945Z,9.70
2023-11-09T02:03:26.822Z,9.72
2023-11-09T02:03:59.182Z,9.71
2023-11-09T02:04:30.871Z,9.71
2023-11-09T02:05:03.010Z,9.71
2023-11-09T02:05:36.506Z,9.71
2023-11-09T02:06:10.586Z,9.70
2023-11-09T02:06:43.743Z,9.70
2023-11-09T02:07:16.517Z,9.71
2023-11-09T02:07:48.129Z,9.72
2023-11-09T02:08:19.769Z,9.70
2023-11-09T02:08:53.089Z,9.70
2023-11-09T02:09:24.899Z,9.70
2023-11-09T02:09:57.088Z,9.70
2023-11-09T02:10:30.879Z,9.70
2023-11-09T02:11:02.398Z,9.70
2023-11-09T02:11:33.849Z,9.71
2023-11-09T02:12:07.831Z,9.72
2023-11-09T02:12:39.376Z,9.72
2023-11-09T02:13:10.912Z,9.71
2023-11-09T02:13:42.736Z,9.72
2023-11-09T02:14:16.003Z,9.72
2023-11-09T02:14:48.146Z,9.72
2023-11-09T02:15:19.664Z,9.71
2023-11-09T02:15:52.999Z,9.70
2023-11-09T02:16:24.673Z,9.72
2023-11-09T02:16:58.489Z,9.72
2023-11-09T02:17:30.585Z,9.73
2023-11-09T02:18:02.265Z,9.73
2023-11-09T02:18:34.740Z,9.73
2023-11-09T02:19:08.877Z,9.73
2023-11-09T02:19:40.496Z,9.74
2023-11-09T02:20:14.522Z,9.73
2023-11-09T02:20:47.149Z,9.75
2023-11-09T02:21:20.434Z,9.73
2023-11-09T02:21:52.628Z,9.74
2023-11-09T02:22:27.675Z,9.75
2023-11-09T02:23:02.953Z,9.74
2023-11-09T02:23:53.077Z,9.75
2023-11-09T02:24:26.794Z,9.74
2023-11-09T02:24:59.297Z,9.76
2023-11-09T02:25:31.190Z,9.73
2023-11-09T02:26:03.636Z,9.74
2023-11-09T02:26:35.611Z,9.74
2023-11-09T02:27:07.138Z,9.73
2023-11-09T02:27:38.676Z,9.74
2023-11-09T02:28:11.076Z,9.73
2023-11-09T02:28:46.293Z,9.73
2023-11-09T02:29:21.530Z,9.74
2023-11-09T02:29:53.067Z,9.74
2023-11-09T02:30:24.597Z,9.73
2023-11-09T02:30:56.123Z,9.74
2023-11-09T02:31:27.718Z,9.73
2023-11-09T02:31:59.219Z,9.74
2023-11-09T02:32:30.781Z,9.74
2023-11-09T02:33:05.301Z,9.74
2023-11-09T02:33:36.901Z,9.74
2023-11-09T02:34:10.617Z,9.74
2023-11-09T02:34:42.279Z,9.75
2023-11-09T02:35:14.383Z,9.74
2023-11-09T02:35:46.221Z,9.74
2023-11-09T02:36:18.229Z,9.73
2023-11-09T02:36:50.725Z,9.74
2023-11-09T02:37:23.193Z,9.73
2023-11-09T02:37:54.658Z,9.74
2023-11-09T02:38:26.244Z,9.74
2023-11-09T02:38:57.788Z,9.73
2023-11-09T02:39:29.285Z,9.75
2023-11-09T02:40:01.487Z,9.76
2023-11-09T02:40:33.111Z,9.76
2023-11-09T02:41:06.743Z,9.75
2023-11-09T02:41:38.373Z,9.75
2023-11-09T02:42:09.964Z,9.76
2023-11-09T02:42:41.441Z,9.75
2023-11-09T02:43:13.907Z,9.75
2023-11-09T02:43:45.424Z,9.74
2023-11-09T02:44:17.294Z,9.75
2023-11-09T02:44:49.461Z,9.75
2023-11-09T02:45:20.917Z,9.75
2023-11-09T02:45:52.469Z,9.76
2023-11-09T02:46:24.035Z,9.76
2023-11-09T02:46:55.799Z,9.75
2023-11-09T02:47:27.306Z,9.76
2023-11-09T02:47:59.272Z,9.76
2023-11-09T02:48:30.864Z,9.76
2023-11-09T02:49:02.511Z,9.77
2023-11-09T02:49:34.192Z,9.76
2023-11-09T02:50:06.171Z,9.78
2023-11-09T02:50:37.967Z,9.77
2023-11-09T02:51:09.787Z,9.77
2023-11-09T02:51:41.357Z,9.77
2023-11-09T02:52:12.943Z,9.77
2023-11-09T02:52:44.450Z,9.77
2023-11-09T02:53:16.163Z,9.76
2023-11-09T02:53:47.690Z,9.77
2023-11-09T02:54:19.803Z,9.77
2023-11-09T02:54:51.757Z,9.76
2023-11-09T02:55:23.334Z,9.78
2023-11-09T02:55:54.882Z,9.78
2023-11-09T02:56:27.002Z,9.78
2023-11-09T02:56:59.026Z,9.78
2023-11-09T02:57:31.323Z,9.76
2023-11-09T02:58:05.176Z,9.77
2023-11-09T02:58:36.910Z,9.78
2023-11-09T02:59:08.467Z,9.78
2023-11-09T02:59:41.119Z,9.78
2023-11-09T03:00:13.069Z,9.79
2023-11-09T03:01:33.530Z,9.80
2023-11-09T03:02:07.414Z,9.81
2023-11-09T03:02:38.962Z,9.81
2023-11-09T03:03:12.736Z,9.82
2023-11-09T03:03:44.220Z,9.81
2023-11-09T03:04:16.810Z,9.82
2023-11-09T03:04:48.526Z,9.81
2023-11-09T03:05:23.384Z,9.82
2023-11-09T03:05:56.981Z,9.81
2023-11-09T03:06:28.489Z,9.82
2023-11-09T03:06:59.992Z,9.81
2023-11-09T03:07:31.591Z,9.82
2023-11-09T03:08:03.181Z,9.83
2023-11-09T03:08:35.872Z,9.83
2023-11-09T03:09:08.965Z,9.84
2023-11-09T03:09:41.659Z,9.84
2023-11-09T03:10:13.130Z,9.83
2023-11-09T03:10:44.624Z,9.84
2023-11-09T03:11:19.833Z,9.84
2023-11-09T03:11:51.310Z,9.84
2023-11-09T03:12:22.795Z,9.83
2023-11-09T03:12:55.306Z,9.82
2023-11-09T03:13:27.991Z,9.84
2023-11-09T03:14:01.507Z,9.84
2023-11-09T03:14:35.054Z,9.85
2023-11-09T03:15:10.436Z,9.85
2023-11-09T03:15:42.960Z,9.86
2023-11-09T03:16:14.765Z,9.86
2023-11-09T03:16:46.501Z,9.86
2023-11-09T03:17:18.287Z,9.87
2023-11-09T03:17:49.831Z,9.88
2023-11-09T03:18:21.581Z,9.86
2023-11-09T03:18:53.945Z,9.88
2023-11-09T03:19:25.549Z,9.87
2023-11-09T03:19:59.112Z,9.87
2023-11-09T03:20:30.711Z,9.88
2023-11-09T03:21:02.680Z,9.88
2023-11-09T03:21:34.245Z,9.89
2023-11-09T03:22:11.687Z,9.88
2023-11-09T03:22:45.857Z,9.87
2023-11-09T03:23:17.468Z,9.88
2023-11-09T03:23:50.495Z,9.86
2023-11-09T03:24:21.980Z,9.88
2023-11-09T03:24:53.560Z,9.88
2023-11-09T03:25:25.044Z,9.88
2023-11-09T03:25:56.724Z,9.89
2023-11-09T03:26:28.208Z,9.88
2023-11-09T03:27:01.243Z,9.88
2023-11-09T03:27:34.201Z,9.87
2023-11-09T03:28:06.393Z,9.89
2023-11-09T03:28:40.241Z,9.88
2023-11-09T03:29:12.701Z,9.89
2023-11-09T03:29:44.153Z,9.88
2023-11-09T03:30:15.884Z,9.88
2023-11-09T03:30:47.432Z,9.88
2023-11-09T03:31:18.990Z,9.88
2023-11-09T03:31:50.492Z,9.88
2023-11-09T03:32:24.082Z,9.88
2023-11-09T03:32:55.707Z,9.87
2023-11-09T03:33:27.185Z,9.87
2023-11-09T03:33:58.882Z,9.88
2023-11-09T03:34:30.579Z,9.88
2023-11-09T03:35:52.038Z,9.89
2023-11-09T03:36:23.526Z,9.89
2023-11-09T03:36:55.217Z,9.90
2023-11-09T03:37:28.293Z,9.88
2023-11-09T03:37:59.853Z,9.89
2023-11-09T03:38:31.437Z,9.90
2023-11-09T03:39:03.247Z,9.88
2023-11-09T03:39:36.023Z,9.89
2023-11-09T03:40:09.094Z,9.89
2023-11-09T03:40:40.563Z,9.90
2023-11-09T03:41:12.290Z,9.91
2023-11-09T03:41:50.344Z,9.91
2023-11-09T03:42:22.130Z,9.91
2023-11-09T03:42:53.905Z,9.92
2023-11-09T03:43:25.513Z,9.92
2023-11-09T03:43:57.967Z,9.93
2023-11-09T03:44:39.721Z,9.92
2023-11-09T03:45:11.279Z,9.93
2023-11-09T03:45:42.775Z,9.93
2023-11-09T03:46:14.608Z,9.92
2023-11-09T03:46:46.461Z,9.92
2023-11-09T03:47:18.090Z,9.93
2023-11-09T03:47:49.836Z,9.92
2023-11-09T03:48:21.610Z,9.93
2023-11-09T03:48:53.249Z,9.93
2023-11-09T03:49:24.765Z,9.94
2023-11-09T03:49:56.286Z,9.94
2023-11-09T03:50:28.508Z,9.94
2023-11-09T03:50:59.973Z,9.95
2023-11-09T03:51:31.519Z,9.94
2023-11-09T03:52:03.112Z,9.95
2023-11-09T03:52:34.617Z,9.94
2023-11-09T03:53:06.151Z,9.95
2023-11-09T03:53:37.636Z,9.95
2023-11-09T03:54:27.700Z,9.94
2023-11-09T03:55:18.084Z,9.96
2023-11-09T03:55:49.535Z,9.95
2023-11-09T03:56:22.789Z,9.94
2023-11-09T03:56:54.357Z,9.94
2023-11-09T03:57:25.783Z,9.94
2023-11-09T03:57:58.311Z,9.94
2023-11-09T03:58:29.905Z,9.95
2023-11-09T03:59:01.684Z,9.94
2023-11-09T03:59:33.220Z,9.94
2023-11-09T04:00:09.499Z,9.94
2023-11-09T04:00:41.054Z,9.94
2023-11-09T04:01:12.869Z,9.95
2023-11-09T04:01:44.415Z,9.94
2023-11-09T04:02:17.083Z,9.94
2023-11-09T04:02:48.573Z,9.94
2023-11-09T04:03:20.638Z,9.94
2023-11-09T04:03:52.284Z,9.95
2023-11-09T04:04:24.458Z,9.95
2023-11-09T04:04:56.246Z,9.95
2023-11-09T04:05:28.036Z,9.96
2023-11-09T04:05:59.573Z,9.94
2023-11-09T04:06:31.339Z,9.95
2023-11-09T04:07:02.998Z,9.94
2023-11-09T04:07:34.568Z,9.95
2023-11-09T04:08:24.606Z,9.96
2023-11-09T04:09:15.761Z,9.98
2023-11-09T04:09:48.368Z,9.97
2023-11-09T04:10:19.909Z,9.97
2023-11-09T04:11:09.673Z,9.96
2023-11-09T04:11:41.582Z,9.97
2023-11-09T04:12:13.802Z,9.96
2023-11-09T04:12:45.698Z,9.97
2023-11-09T04:13:17.204Z,9.96
2023-11-09T04:13:48.861Z,9.96
2023-11-09T04:14:20.398Z,9.96
2023-11-09T04:14:51.936Z,9.95
2023-11-09T04:15:23.466Z,9.97
2023-11-09T04:15:55.782Z,9.96
2023-11-09T04:16:28.884Z,9.97
2023-11-09T04:17:00.431Z,9.96
2023-11-09T04:17:35.023Z,9.96
2023-11-09T04:18:06.519Z,9.95
2023-11-09T04:18:39.666Z,9.94
2023-11-09T04:19:11.284Z,9.94
2023-11-09T04:19:43.878Z,9.94
2023-11-09T04:20:17.855Z,9.95
2023-11-09T04:20:49.397Z,9.95
2023-11-09T04:21:20.850Z,9.96
2023-11-09T04:21:53.926Z,9.95
2023-11-09T04:22:25.637Z,9.95
2023-11-09T04:22:57.183Z,9.95
2023-11-09T04:23:28.686Z,9.95
2023-11-09T04:24:00.304Z,9.95
2023-11-09T04:24:32.060Z,9.95
2023-11-09T04:25:03.983Z,9.95
2023-11-09T04:25:35.487Z,9.96
2023-11-09T04:26:09.805Z,9.95
2023-11-09T04:26:43.143Z,9.94
2023-11-09T04:27:14.656Z,9.94
2023-11-09T04:27:46.721Z,9.93
2023-11-09T04:28:18.243Z,9.92
2023-11-09T04:28:52.192Z,9.92
2023-11-09T04:29:24.862Z,9.91
2023-11-09T04:29:57.177Z,9.91
2023-11-09T04:30:31.488Z,9.89
2023-11-09T04:31:06.342Z,9.89
2023-11-09T04:31:38.794Z,9.90
2023-11-09T04:32:29.222Z,9.90
2023-11-09T04:33:00.863Z,9.92
2023-11-09T04:33:33.361Z,9.90
2023-11-09T04:34:09.479Z,9.91
2023-11-09T04:34:45.931Z,9.90
2023-11-09T04:35:18.957Z,9.89
2023-11-09T04:35:53.397Z,9.90
2023-11-09T04:36:24.909Z,9.89
2023-11-09T04:36:56.433Z,9.89
2023-11-09T04:37:28.001Z,9.91
2023-11-09T04:37:59.564Z,9.91
2023-11-09T04:38:31.618Z,9.92
2023-11-09T04:39:32.318Z,9.92
2023-11-09T04:40:13.693Z,9.92
2023-11-09T04:40:45.637Z,9.91
2023-11-09T04:41:17.666Z,9.90
2023-11-09T04:41:49.207Z,9.91
2023-11-09T04:42:20.983Z,9.91
2023-11-09T04:42:52.765Z,9.88
2023-11-09T04:43:24.273Z,9.89
2023-11-09T04:43:58.346Z,9.87
2023-11-09T04:44:30.186Z,9.89
2023-11-09T04:45:02.111Z,9.88
2023-11-09T04:45:34.679Z,9.88
2023-11-09T04:46:11.454Z,9.89
2023-11-09T04:46:43.099Z,9.88
2023-11-09T04:47:22.837Z,9.87
2023-11-09T04:47:59.565Z,9.86
2023-11-09T04:48:32.765Z,9.85
2023-11-09T04:49:08.037Z,9.84
2023-11-09T04:49:46.585Z,9.85
2023-11-09T04:50:29.119Z,9.86
2023-11-09T04:51:05.687Z,9.86
2023-11-09T04:51:37.821Z,9.87
2023-11-09T04:52:31.004Z,9.86
2023-11-09T04:53:05.520Z,9.86
2023-11-09T04:53:43.163Z,9.85
2023-11-09T04:54:21.323Z,9.85
2023-11-09T04:55:00.839Z,9.84
2023-11-09T04:55:54.549Z,9.85
2023-11-09T04:56:46.445Z,9.85
2023-11-09T04:57:36.680Z,9.84
2023-11-09T04:58:26.927Z,9.83
2023-11-09T04:59:24.260Z,9.82
2023-11-09T04:59:55.712Z,9.82
2023-11-09T05:00:48.282Z,9.80
2023-11-09T05:01:39.628Z,9.80
2023-11-09T05:02:29.810Z,9.80
2023-11-09T05:03:20.092Z,9.78
2023-11-09T05:04:26.858Z,9.79
2023-11-09T05:05:35.740Z,9.77
2023-11-09T05:06:25.920Z,9.76
2023-11-09T05:06:57.466Z,9.75
2023-11-09T05:07:29.381Z,9.75
2023-11-09T05:08:01.651Z,9.74
2023-11-09T05:08:33.168Z,9.76
2023-11-09T05:09:05.249Z,9.74
2023-11-09T05:09:36.719Z,9.73
2023-11-09T05:10:08.731Z,9.74
2023-11-09T05:10:40.339Z,9.72
2023-11-09T05:11:15.649Z,9.71
2023-11-09T05:11:48.180Z,9.70
2023-11-09T05:12:19.732Z,9.69
2023-11-09T05:12:51.231Z,9.68
2023-11-09T05:13:22.742Z,9.67
2023-11-09T05:13:54.766Z,9.67
2023-11-09T05:14:26.218Z,9.69
2023-11-09T05:14:57.720Z,9.66
2023-11-09T05:15:29.153Z,9.67
2023-11-09T05:16:00.729Z,9.69
2023-11-09T05:16:32.483Z,9.67
2023-11-09T05:17:04.244Z,9.67
2023-11-09T05:17:36.053Z,9.67
2023-11-09T05:18:07.706Z,9.66
2023-11-09T05:18:39.399Z,9.67
2023-11-09T05:19:13.671Z,9.66
2023-11-09T05:19:45.763Z,9.67
2023-11-09T05:20:17.372Z,9.67
2023-11-09T05:20:52.144Z,9.68
2023-11-09T05:21:24.535Z,9.68
2023-11-09T05:21:56.584Z,9.69
2023-11-09T05:22:28.164Z,9.69
2023-11-09T05:22:59.717Z,9.68
2023-11-09T05:23:31.219Z,9.69
2023-11-09T05:24:52.300Z,9.69
2023-11-09T05:25:24.370Z,9.69
2023-11-09T05:25:55.947Z,9.70
2023-11-09T05:26:27.784Z,9.69
2023-11-09T05:26:59.298Z,9.67
2023-11-09T05:27:30.789Z,9.67
2023-11-09T05:28:02.309Z,9.67
2023-11-09T05:28:33.837Z,9.66
2023-11-09T05:29:24.204Z,9.66
2023-11-09T05:29:57.005Z,9.68
2023-11-09T05:30:28.451Z,9.68
2023-11-09T05:30:59.873Z,9.68
2023-11-09T05:31:35.888Z,9.67
2023-11-09T05:32:07.655Z,9.67
2023-11-09T05:32:40.665Z,9.67
2023-11-09T05:33:12.375Z,9.65
2023-11-09T05:33:45.748Z,9.66
2023-11-09T05:34:17.298Z,9.67
2023-11-09T05:34:48.787Z,9.67
2023-11-09T05:35:20.585Z,9.68
2023-11-09T05:35:52.080Z,9.69
2023-11-09T05:36:23.689Z,9.69
2023-11-09T05:36:55.152Z,9.68
2023-11-09T05:37:26.675Z,9.68
2023-11-09T05:37:58.291Z,9.68
2023-11-09T05:38:31.746Z,9.68
2023-11-09T05:39:06.928Z,9.69
2023-11-09T05:39:38.559Z,9.69
2023-11-09T05:40:11.388Z,9.69
2023-11-09T05:40:44.103Z,9.69
2023-11-09T05:41:18.496Z,9.68
2023-11-09T05:41:52.672Z,9.66
2023-11-09T05:42:26.244Z,9.66
2023-11-09T05:42:57.681Z,9.65
2023-11-09T05:43:29.173Z,9.65
2023-11-09T05:44:00.674Z,9.64
2023-11-09T05:44:32.230Z,9.64
2023-11-09T05:45:05.632Z,9.64
2023-11-09T05:45:37.506Z,9.64
2023-11-09T05:46:10.336Z,9.63
2023-11-09T05:46:41.916Z,9.63
2023-11-09T05:47:13.465Z,9.63
2023-11-09T05:47:45.234Z,9.63
2023-11-09T05:48:17.799Z,9.63
2023-11-09T05:48:49.955Z,9.63
2023-11-09T05:49:22.289Z,9.62
2023-11-09T05:49:54.181Z,9.62
2023-11-09T05:50:25.659Z,9.63
2023-11-09T05:51:22.131Z,9.62
2023-11-09T05:51:54.732Z,9.64
2023-11-09T05:52:26.436Z,9.62
2023-11-09T05:52:58.114Z,9.63
2023-11-09T05:53:29.616Z,9.63
2023-11-09T05:54:01.210Z,9.62
2023-11-09T05:54:32.876Z,9.61
2023-11-09T05:55:06.138Z,9.61
2023-11-09T05:55:37.729Z,9.61
2023-11-09T05:56:09.786Z,9.61
2023-11-09T05:56:44.341Z,9.61
2023-11-09T05:57:17.292Z,9.60
2023-11-09T05:57:48.831Z,9.61
2023-11-09T05:58:20.630Z,9.60
2023-11-09T05:58:52.607Z,9.58
2023-11-09T05:59:24.586Z,9.58
2023-11-09T05:59:56.150Z,9.60
2023-11-09T06:00:28.435Z,9.58
2023-11-09T06:01:00.256Z,9.58
2023-11-09T06:01:32.350Z,9.58
2023-11-09T06:02:03.947Z,9.59
2023-11-09T06:02:35.511Z,9.57
2023-11-09T06:03:07.417Z,9.57
2023-11-09T06:03:39.194Z,9.56
2023-11-09T06:04:10.951Z,9.55
2023-11-09T06:04:43.871Z,9.54
2023-11-09T06:05:17.784Z,9.54
2023-11-09T06:05:50.038Z,9.53
2023-11-09T06:06:22.016Z,9.52
2023-11-09T06:06:53.600Z,9.52
2023-11-09T06:07:25.134Z,9.52
2023-11-09T06:07:58.104Z,9.51
2023-11-09T06:08:29.649Z,9.51
2023-11-09T06:09:02.868Z,9.50
2023-11-09T06:09:34.587Z,9.50
2023-11-09T06:10:06.848Z,9.48
2023-11-09T06:10:38.999Z,9.48
2023-11-09T06:11:14.787Z,9.46
2023-11-09T06:11:47.487Z,9.47
2023-11-09T06:12:19.103Z,9.46
2023-11-09T06:12:51.018Z,9.46
2023-11-09T06:13:24.812Z,9.46
2023-11-09T06:13:57.002Z,9.43
2023-11-09T06:14:28.498Z,9.44
2023-11-09T06:15:00.003Z,9.45
2023-11-09T06:15:32.540Z,9.45
2023-11-09T06:16:06.829Z,9.45
2023-11-09T06:16:38.779Z,9.45
2023-11-09T06:17:12.059Z,9.46
2023-11-09T06:17:45.044Z,9.45
2023-11-09T06:18:17.647Z,9.45
2023-11-09T06:19:08.883Z,9.44
2023-11-09T06:19:40.444Z,9.44
2023-11-09T06:20:15.610Z,9.42
2023-11-09T06:20:48.314Z,9.41
2023-11-09T06:21:22.169Z,9.39
2023-11-09T06:21:54.384Z,9.39
2023-11-09T06:22:26.042Z,9.38
2023-11-09T06:22:58.408Z,9.37
2023-11-09T06:23:30.522Z,9.38
2023-11-09T06:24:02.002Z,9.35
2023-11-09T06:24:33.603Z,9.35
2023-11-09T06:25:05.682Z,9.33
2023-11-09T06:25:37.246Z,9.33
2023-11-09T06:26:08.884Z,9.30
2023-11-09T06:26:40.637Z,9.31
2023-11-09T06:27:12.391Z,9.30
2023-11-09T06:27:43.965Z,9.29
2023-11-09T06:29:05.587Z,9.28
2023-11-09T06:29:37.128Z,9.27
2023-11-09T06:30:09.591Z,9.27
2023-11-09T06:30:42.228Z,9.27
2023-11-09T06:31:14.110Z,9.26
2023-11-09T06:31:45.610Z,9.25
2023-11-09T06:32:17.117Z,9.25
2023-11-09T06:32:49.773Z,9.27
2023-11-09T06:33:21.434Z,9.25
2023-11-09T06:33:54.947Z,9.24
2023-11-09T06:34:27.915Z,9.23
2023-11-09T06:35:00.316Z,9.23
2023-11-09T06:35:32.266Z,9.24
2023-11-09T06:36:07.203Z,9.25
2023-11-09T06:36:38.718Z,9.25
2023-11-09T06:37:28.744Z,9.25
2023-11-09T06:38:00.362Z,9.26
2023-11-09T06:38:32.740Z,9.25
2023-11-09T06:39:04.279Z,9.24
2023-11-09T06:39:36.016Z,9.22
2023-11-09T06:40:12.703Z,9.23
2023-11-09T06:41:04.044Z,9.22
2023-11-09T06:41:37.514Z,9.23
2023-11-09T06:42:12.030Z,9.23
2023-11-09T06:42:44.965Z,9.23
2023-11-09T06:43:17.061Z,9.23
2023-11-09T06:43:49.744Z,9.23
2023-11-09T06:44:21.216Z,9.23
2023-11-09T06:44:55.068Z,9.23
2023-11-09T06:45:26.756Z,9.23
2023-11-09T06:46:16.539Z,9.23
2023-11-09T06:46:48.138Z,9.23
2023-11-09T06:47:20.097Z,9.20
2023-11-09T06:47:51.734Z,9.18
2023-11-09T06:48:23.279Z,9.19
2023-11-09T06:48:55.131Z,9.19
2023-11-09T06:49:26.730Z,9.18
2023-11-09T06:49:59.772Z,9.19
2023-11-09T06:50:31.437Z,9.19
2023-11-09T06:51:04.482Z,9.20
2023-11-09T06:51:36.828Z,9.20
2023-11-09T06:52:08.557Z,9.20
2023-11-09T06:52:43.597Z,9.21
2023-11-09T06:53:19.075Z,9.21
2023-11-09T06:53:51.422Z,9.21
2023-11-09T06:54:23.011Z,9.21
2023-11-09T06:54:54.459Z,9.22
2023-11-09T06:55:26.127Z,9.23
2023-11-09T06:55:57.707Z,9.22
2023-11-09T06:56:30.356Z,9.22
2023-11-09T06:57:05.733Z,9.23
2023-11-09T06:57:38.215Z,9.23
2023-11-09T06:58:10.733Z,9.23
2023-11-09T06:58:42.347Z,9.23
2023-11-09T06:59:13.954Z,9.23
2023-11-09T06:59:45.511Z,9.23
2023-11-09T07:00:36.156Z,9.25
2023-11-09T07:01:08.782Z,9.24
2023-11-09T07:01:40.441Z,9.23
2023-11-09T07:02:12.071Z,9.23
2023-11-09T07:02:48.717Z,9.23
2023-11-09T07:03:21.246Z,9.22
2023-11-09T07:03:53.184Z,9.21
2023-11-09T07:04:25.155Z,9.22
2023-11-09T07:04:56.754Z,9.20
2023-11-09T07:05:28.980Z,9.20
2023-11-09T07:06:00.676Z,9.20
2023-11-09T07:06:32.982Z,9.20
2023-11-09T07:07:04.827Z,9.19
2023-11-09T07:07:37.124Z,9.18
2023-11-09T07:08:09.500Z,9.17
2023-11-09T07:08:40.928Z,9.16
2023-11-09T07:09:13.103Z,9.16
2023-11-09T07:09:44.696Z,9.15
2023-11-09T07:10:16.984Z,9.17
2023-11-09T07:10:48.584Z,9.15
2023-11-09T07:11:20.118Z,9.16
2023-11-09T07:11:55.623Z,9.15
2023-11-09T07:12:27.758Z,9.14
2023-11-09T07:12:59.228Z,9.14
2023-11-09T07:13:31.010Z,9.13
2023-11-09T07:14:03.224Z,9.12
2023-11-09T07:14:34.705Z,9.13
2023-11-09T07:15:08.870Z,9.11
2023-11-09T07:15:41.227Z,9.11
2023-11-09T07:16:13.397Z,9.10
2023-11-09T07:16:44.939Z,9.09
2023-11-09T07:17:16.423Z,9.09
2023-11-09T07:17:48.562Z,9.09
2023-11-09T07:18:20.782Z,9.08
2023-11-09T07:18:53.526Z,9.08
2023-11-09T07:19:25.205Z,9.08
2023-11-09T07:19:56.905Z,9.08
2023-11-09T07:20:28.524Z,9.07
2023-11-09T07:21:07.219Z,9.08
2023-11-09T07:21:43.647Z,9.08
2023-11-09T07:22:16.317Z,9.06
2023-11-09T07:22:49.489Z,9.06
2023-11-09T07:23:25.275Z,9.05
2023-11-09T07:24:00.857Z,9.05
2023-11-09T07:24:38.420Z,9.05
2023-11-09T07:25:13.738Z,9.06
2023-11-09T07:25:47.642Z,9.06
2023-11-09T07:26:19.176Z,9.04
2023-11-09T07:26:50.702Z,9.03
2023-11-09T07:27:22.238Z,9.02
2023-11-09T07:27:54.405Z,9.00
2023-11-09T07:28:25.972Z,9.02